createdAt,value
2022-10-13T00:01:13.151Z,14.20
2022-10-13T00:03:42.092Z,14.20
2022-10-13T00:06:10.854Z,14.20
2022-10-13T00:08:38.990Z,14.20
2022-10-13T00:11:18.465Z,14.10
2022-10-13T00:13:47.745Z,14.40
2022-10-13T00:16:18.018Z,14.10
2022-10-13T00:18:46.108Z,14.00
2022-10-13T00:21:17.564Z,13.90
2022-10-13T00:23:46.752Z,13.90
2022-10-13T00:26:21.972Z,13.80
2022-10-13T00:28:52.539Z,13.80
2022-10-13T00:31:26.233Z,13.80
2022-10-13T00:33:54.607Z,13.70
2022-10-13T00:36:23.774Z,13.70
2022-10-13T00:38:52.504Z,13.70
2022-10-13T00:41:21.365Z,13.60
2022-10-13T00:43:57.347Z,13.60
2022-10-13T00:46:37.160Z,13.60
2022-10-13T00:49:14.287Z,13.60
2022-10-13T00:51:50.250Z,13.60
2022-10-13T00:54:22.787Z,13.60
2022-10-13T00:56:51.558Z,13.60
2022-10-13T00:59:27.327Z,13.60
2022-10-13T01:01:57.658Z,13.60
2022-10-13T01:04:28.783Z,13.60
2022-10-13T01:06:58.119Z,13.60
2022-10-13T01:09:25.696Z,13.60
2022-10-13T01:12:21.785Z,13.60
2022-10-13T01:15:10.366Z,13.60
2022-10-13T01:17:49.482Z,13.50
2022-10-13T01:20:41.741Z,13.50
2022-10-13T01:23:27.501Z,13.50
2022-10-13T01:25:57.304Z,13.50
2022-10-13T01:29:03.894Z,13.50
2022-10-13T01:31:37.716Z,13.50
2022-10-13T01:34:21.553Z,13.50
2022-10-13T01:36:54.684Z,13.50
2022-10-13T01:39:32.565Z,13.40
2022-10-13T01:42:13.270Z,13.40
2022-10-13T01:44:43.899Z,13.40
2022-10-13T01:47:13.434Z,13.40
2022-10-13T01:49:42.433Z,13.30
2022-10-13T01:52:16.462Z,13.30
2022-10-13T01:54:48.807Z,13.30
2022-10-13T01:57:33.243Z,13.30
2022-10-13T02:00:06.057Z,13.30
2022-10-13T02:02:44.894Z,13.30
2022-10-13T02:05:37.149Z,13.30
2022-10-13T02:08:31.081Z,13.30
2022-10-13T02:11:20.104Z,13.30
2022-10-13T02:13:59.857Z,13.40
2022-10-13T02:16:32.581Z,13.30
2022-10-13T02:19:04.775Z,13.30
2022-10-13T02:21:33.410Z,13.30
2022-10-13T02:24:05.076Z,13.30
2022-10-13T02:26:33.877Z,13.30
2022-10-13T02:29:16.234Z,13.30
2022-10-13T02:31:45.868Z,13.30
2022-10-13T02:34:14.427Z,13.30
2022-10-13T02:36:44.166Z,13.30
2022-10-13T02:39:12.154Z,13.20
2022-10-13T02:41:39.943Z,13.20
2022-10-13T02:44:08.104Z,13.20
2022-10-13T02:46:41.963Z,13.20
2022-10-13T02:49:10.409Z,13.20
2022-10-13T02:51:40.427Z,13.20
2022-10-13T02:54:08.645Z,13.20
2022-10-13T02:56:36.326Z,13.20
2022-10-13T02:59:04.248Z,13.20
2022-10-13T03:01:31.807Z,13.20
2022-10-13T03:03:59.580Z,13.20
2022-10-13T03:06:27.128Z,13.30
2022-10-13T03:08:54.683Z,13.30
2022-10-13T03:11:22.312Z,13.30
2022-10-13T03:13:49.918Z,13.20
2022-10-13T03:16:17.515Z,13.30
2022-10-13T03:18:45.622Z,13.20
2022-10-13T03:21:13.223Z,13.20
2022-10-13T03:23:40.945Z,13.20
2022-10-13T03:26:08.521Z,13.20
2022-10-13T03:28:36.241Z,13.20
2022-10-13T03:31:13.039Z,13.20
2022-10-13T03:33:41.167Z,13.10
2022-10-13T03:36:08.955Z,13.10
2022-10-13T03:38:37.012Z,13.10
2022-10-13T03:41:09.588Z,13.10
2022-10-13T03:43:37.826Z,13.10
2022-10-13T03:46:06.923Z,13.10
2022-10-13T03:48:36.521Z,13.10
2022-10-13T03:51:08.320Z,13.10
2022-10-13T03:53:35.948Z,13.10
2022-10-13T03:56:05.244Z,13.10
2022-10-13T03:58:36.112Z,13.10
2022-10-13T04:01:05.500Z,13.10
2022-10-13T04:03:34.538Z,13.10
2022-10-13T04:06:03.692Z,13.10
2022-10-13T04:08:32.576Z,13.10
2022-10-13T04:11:05.586Z,13.10
2022-10-13T04:13:34.127Z,13.10
2022-10-13T04:16:29.685Z,13.10
2022-10-13T04:19:02.352Z,13.10
2022-10-13T04:21:31.417Z,13.10
2022-10-13T04:23:59.774Z,13.00
2022-10-13T04:26:29.227Z,13.10
2022-10-13T04:28:57.904Z,13.10
2022-10-13T04:31:26.304Z,13.00
2022-10-13T04:33:54.183Z,13.00
2022-10-13T04:36:21.956Z,13.00
2022-10-13T04:38:51.447Z,13.00
2022-10-13T04:41:19.664Z,13.00
2022-10-13T04:43:51.562Z,12.90
2022-10-13T04:46:29.191Z,13.00
2022-10-13T04:48:57.887Z,13.00
2022-10-13T04:51:33.067Z,13.00
2022-10-13T04:54:02.119Z,13.00
2022-10-13T04:56:30.024Z,13.00
2022-10-13T04:59:05.862Z,13.00
2022-10-13T05:01:35.967Z,13.00
2022-10-13T05:04:06.757Z,13.00
2022-10-13T05:06:58.787Z,13.00
2022-10-13T05:09:27.405Z,13.00
2022-10-13T05:11:57.047Z,13.00
2022-10-13T05:14:24.757Z,12.90
2022-10-13T05:16:52.413Z,12.90
2022-10-13T05:19:20.504Z,12.90
2022-10-13T05:21:50.417Z,13.00
2022-10-13T05:24:18.131Z,13.00
2022-10-13T05:26:49.194Z,13.00
2022-10-13T05:29:18.209Z,13.00
2022-10-13T05:31:45.776Z,13.00
2022-10-13T05:34:18.904Z,13.00
2022-10-13T05:36:46.463Z,13.00
2022-10-13T05:39:14.025Z,13.00
2022-10-13T05:41:41.703Z,13.00
2022-10-13T05:44:14.575Z,13.00
2022-10-13T05:46:54.909Z,13.00
2022-10-13T05:49:22.563Z,13.00
2022-10-13T05:52:00.589Z,13.00
2022-10-13T05:54:33.401Z,13.00
2022-10-13T05:57:30.317Z,13.00
2022-10-13T06:00:02.108Z,13.00
2022-10-13T06:02:53.529Z,13.00
2022-10-13T06:05:23.745Z,13.00
2022-10-13T06:07:55.148Z,13.00
2022-10-13T06:10:23.457Z,13.10
2022-10-13T06:12:51.369Z,13.10
2022-10-13T06:15:18.984Z,13.10
2022-10-13T06:17:46.971Z,13.10
2022-10-13T06:20:14.691Z,13.20
2022-10-13T06:22:42.442Z,13.20
2022-10-13T06:25:10.276Z,13.20
2022-10-13T06:27:38.009Z,13.20
2022-10-13T06:30:06.171Z,13.20
2022-10-13T06:32:37.977Z,13.20
2022-10-13T06:35:06.366Z,13.20
2022-10-13T06:37:34.013Z,13.20
2022-10-13T06:40:01.919Z,13.20
2022-10-13T06:42:31.852Z,13.20
2022-10-13T06:45:19.569Z,13.30
2022-10-13T06:47:47.132Z,13.20
2022-10-13T06:50:14.836Z,13.30
2022-10-13T06:52:43.454Z,13.30
2022-10-13T06:55:11.103Z,13.30
2022-10-13T06:57:38.897Z,13.30
2022-10-13T07:00:09.160Z,13.30
2022-10-13T07:02:38.338Z,13.30
2022-10-13T07:05:06.258Z,13.30
2022-10-13T07:07:33.894Z,13.30
2022-10-13T07:10:01.474Z,13.40
2022-10-13T07:12:29.126Z,13.40
2022-10-13T07:14:56.776Z,13.40
2022-10-13T07:17:24.342Z,13.40
2022-10-13T07:19:57.088Z,13.40
2022-10-13T07:22:26.654Z,13.40
2022-10-13T07:24:54.253Z,13.40
2022-10-13T07:27:23.086Z,13.40
2022-10-13T07:29:51.004Z,13.40
2022-10-13T07:32:18.766Z,13.40
2022-10-13T07:34:46.437Z,13.50
2022-10-13T07:37:14.214Z,13.40
2022-10-13T07:39:41.786Z,13.50
2022-10-13T07:42:09.370Z,13.50
2022-10-13T07:44:36.893Z,13.50
2022-10-13T07:47:04.597Z,13.50
2022-10-13T07:49:32.159Z,13.60
2022-10-13T07:52:01.593Z,13.60
2022-10-13T07:54:29.269Z,13.60
2022-10-13T07:56:57.166Z,13.70
2022-10-13T07:59:24.770Z,13.80
2022-10-13T08:01:52.398Z,14.00
2022-10-13T08:04:20.109Z,14.30
2022-10-13T08:06:47.710Z,14.80
2022-10-13T08:09:15.330Z,15.30
2022-10-13T08:11:43.418Z,15.90
2022-10-13T08:14:13.324Z,16.40
2022-10-13T08:16:44.290Z,16.90
2022-10-13T08:19:13.993Z,17.30
2022-10-13T08:21:58.791Z,17.80
2022-10-13T08:24:27.450Z,18.20
2022-10-13T08:26:55.533Z,18.60
2022-10-13T08:29:24.163Z,18.60
2022-10-13T08:31:53.724Z,18.80
2022-10-13T08:34:23.129Z,18.70
2022-10-13T08:36:55.147Z,18.50
2022-10-13T08:39:24.760Z,18.10
2022-10-13T08:41:56.303Z,17.80
2022-10-13T08:47:27.402Z,17.30
2022-10-13T08:50:02.683Z,17.20
2022-10-13T08:52:45.682Z,17.00
2022-10-13T08:55:35.401Z,17.00
2022-10-13T08:58:15.250Z,17.20
2022-10-13T09:00:43.166Z,17.30
2022-10-13T09:03:22.885Z,17.40
2022-10-13T09:06:04.596Z,17.40
2022-10-13T09:08:50.760Z,17.30
2022-10-13T09:11:18.741Z,17.30
2022-10-13T09:13:46.628Z,17.20
2022-10-13T09:16:14.221Z,17.10
2022-10-13T09:18:41.865Z,17.10
2022-10-13T09:21:26.054Z,17.00
2022-10-13T09:24:06.889Z,17.00
2022-10-13T09:26:38.343Z,17.00
2022-10-13T09:29:21.174Z,17.10
2022-10-13T09:31:48.830Z,17.00
2022-10-13T09:34:19.409Z,17.00
2022-10-13T09:36:56.896Z,16.90
2022-10-13T09:39:24.533Z,16.70
2022-10-13T09:41:52.809Z,16.50
2022-10-13T09:44:30.030Z,16.40
2022-10-13T09:47:01.634Z,16.30
2022-10-13T09:49:41.487Z,16.40
2022-10-13T09:52:21.472Z,16.60
2022-10-13T09:54:52.415Z,16.90
2022-10-13T09:57:23.250Z,17.10
2022-10-13T10:00:14.624Z,17.30
2022-10-13T10:03:04.021Z,17.40
2022-10-13T10:05:50.741Z,17.40
2022-10-13T10:09:03.728Z,17.40
2022-10-13T10:11:42.450Z,17.40
2022-10-13T10:14:20.894Z,17.40
2022-10-13T10:17:06.878Z,17.40
2022-10-13T10:20:01.933Z,17.40
2022-10-13T10:22:52.898Z,17.70
2022-10-13T10:25:58.007Z,18.00
2022-10-13T10:28:35.819Z,18.20
2022-10-13T10:31:12.530Z,18.20
2022-10-13T10:34:04.627Z,18.30
2022-10-13T10:36:57.309Z,18.30
2022-10-13T10:39:47.976Z,18.50
2022-10-13T10:42:51.141Z,18.60
2022-10-13T10:45:26.833Z,18.70
2022-10-13T10:47:59.987Z,18.80
2022-10-13T10:50:29.992Z,18.90
2022-10-13T10:53:27.809Z,19.10
2022-10-13T10:56:13.586Z,19.20
2022-10-13T10:58:53.300Z,19.20
2022-10-13T11:01:25.769Z,19.10
2022-10-13T11:04:17.356Z,19.10
2022-10-13T11:06:44.966Z,19.10
2022-10-13T11:09:12.750Z,18.90
2022-10-13T11:11:42.562Z,18.70
2022-10-13T11:14:40.389Z,18.60
2022-10-13T11:17:15.777Z,18.30
2022-10-13T11:19:43.921Z,18.10
2022-10-13T11:22:14.195Z,18.00
2022-10-13T11:24:41.724Z,17.80
2022-10-13T11:27:14.917Z,17.60
2022-10-13T11:29:57.955Z,17.40
2022-10-13T11:32:30.734Z,17.20
2022-10-13T11:34:58.522Z,17.00
2022-10-13T11:37:38.166Z,16.90
2022-10-13T11:40:14.745Z,16.70
2022-10-13T11:43:08.225Z,16.60
2022-10-13T11:45:50.877Z,16.50
2022-10-13T11:48:18.421Z,16.50
2022-10-13T11:51:00.538Z,16.40
2022-10-13T11:54:01.905Z,16.40
2022-10-13T11:56:50.899Z,16.40
2022-10-13T11:59:23.378Z,16.40
2022-10-13T12:01:59.341Z,16.40
2022-10-13T12:04:28.507Z,16.40
2022-10-13T12:07:00.342Z,16.40
2022-10-13T12:09:29.722Z,16.30
2022-10-13T12:12:12.803Z,16.40
2022-10-13T12:14:43.559Z,16.40
2022-10-13T12:17:27.066Z,16.50
2022-10-13T12:19:57.503Z,16.50
2022-10-13T12:22:28.057Z,16.60
2022-10-13T12:25:00.981Z,16.60
2022-10-13T12:27:32.793Z,16.70
2022-10-13T12:30:02.133Z,16.70
2022-10-13T12:32:34.474Z,16.80
2022-10-13T12:35:27.895Z,16.80
2022-10-13T12:37:56.981Z,16.90
2022-10-13T12:40:25.216Z,16.90
2022-10-13T12:42:53.277Z,17.00
2022-10-13T12:45:24.046Z,17.00
2022-10-13T12:47:54.430Z,17.00
2022-10-13T12:50:30.590Z,17.10
2022-10-13T12:53:21.951Z,17.10
2022-10-13T12:55:59.197Z,17.20
2022-10-13T12:58:32.663Z,17.20
2022-10-13T13:01:20.477Z,17.20
2022-10-13T13:03:56.137Z,17.20
2022-10-13T13:06:30.227Z,17.20
2022-10-13T13:09:08.588Z,17.30
2022-10-13T13:11:38.812Z,17.30
2022-10-13T13:14:35.525Z,17.40
2022-10-13T13:17:38.580Z,17.40
2022-10-13T13:20:37.984Z,17.40
2022-10-13T13:23:05.770Z,17.50
2022-10-13T13:25:35.656Z,17.60
2022-10-13T13:28:10.123Z,17.60
2022-10-13T13:30:37.755Z,17.70
2022-10-13T13:33:05.368Z,17.80
2022-10-13T13:35:33.588Z,17.80
2022-10-13T13:38:01.399Z,17.90
2022-10-13T13:40:29.030Z,17.90
2022-10-13T13:42:56.630Z,17.90
2022-10-13T13:45:29.271Z,17.90
2022-10-13T13:48:00.720Z,18.00
2022-10-13T13:50:34.057Z,18.00
2022-10-13T13:53:02.327Z,18.00
2022-10-13T13:55:33.264Z,18.10
2022-10-13T13:58:01.185Z,18.10
2022-10-13T14:00:28.811Z,18.10
2022-10-13T14:02:57.621Z,18.20
2022-10-13T14:05:25.324Z,18.30
2022-10-13T14:07:57.993Z,18.40
2022-10-13T14:10:26.622Z,18.40
2022-10-13T14:12:54.395Z,18.40
2022-10-13T14:15:25.850Z,18.40
2022-10-13T14:17:56.507Z,18.40
2022-10-13T14:20:24.269Z,18.40
2022-10-13T14:22:51.937Z,18.50
2022-10-13T14:25:19.845Z,18.40
2022-10-13T14:27:47.379Z,18.50
2022-10-13T14:30:15.162Z,18.40
2022-10-13T14:32:42.990Z,18.40
2022-10-13T14:35:10.579Z,18.30
2022-10-13T14:37:38.510Z,18.30
2022-10-13T14:40:23.816Z,18.20
2022-10-13T14:42:54.624Z,18.10
2022-10-13T14:45:24.849Z,18.00
2022-10-13T14:47:53.685Z,17.90
2022-10-13T14:50:21.317Z,17.80
2022-10-13T14:52:56.100Z,17.70
2022-10-13T14:55:24.037Z,17.60
2022-10-13T14:57:53.749Z,17.60
2022-10-13T15:00:21.556Z,17.50
2022-10-13T15:02:49.074Z,17.40
2022-10-13T15:05:16.841Z,17.30
2022-10-13T15:07:44.391Z,17.20
2022-10-13T15:10:12.138Z,17.20
2022-10-13T15:12:39.975Z,17.10
2022-10-13T15:15:08.311Z,17.10
2022-10-13T15:17:37.182Z,17.00
2022-10-13T15:20:05.836Z,17.00
2022-10-13T15:22:33.496Z,16.90
2022-10-13T15:25:01.162Z,16.90
2022-10-13T15:27:28.778Z,16.80
2022-10-13T15:29:56.368Z,16.80
2022-10-13T15:32:24.358Z,16.70
2022-10-13T15:34:55.850Z,16.60
2022-10-13T15:37:23.424Z,16.60
2022-10-13T15:39:56.004Z,16.60
2022-10-13T15:42:24.533Z,16.50
2022-10-13T15:47:39.722Z,16.50
2022-10-13T15:50:08.847Z,16.40
2022-10-13T15:52:40.411Z,16.30
2022-10-13T15:55:10.174Z,16.30
2022-10-13T15:57:38.643Z,16.30
2022-10-13T16:00:08.172Z,16.30
2022-10-13T16:02:52.114Z,16.20
2022-10-13T16:05:20.118Z,16.20
2022-10-13T16:07:47.808Z,16.10
2022-10-13T16:10:15.787Z,16.10
2022-10-13T16:12:49.270Z,16.10
2022-10-13T16:15:18.442Z,16.00
2022-10-13T16:17:46.420Z,15.90
2022-10-13T16:20:14.279Z,15.90
2022-10-13T16:22:42.130Z,15.90
2022-10-13T16:25:11.079Z,15.80
2022-10-13T16:27:43.245Z,15.70
2022-10-13T16:30:12.594Z,15.70
2022-10-13T16:32:40.839Z,15.60
2022-10-13T16:35:08.538Z,15.60
2022-10-13T16:37:36.147Z,15.60
2022-10-13T16:40:03.920Z,15.50
2022-10-13T16:42:31.489Z,15.50
2022-10-13T16:44:59.064Z,15.50
2022-10-13T16:47:27.813Z,15.50
2022-10-13T16:49:55.356Z,15.40
2022-10-13T16:52:24.716Z,15.30
2022-10-13T16:54:52.845Z,15.30
2022-10-13T16:57:20.647Z,15.20
2022-10-13T17:00:00.684Z,15.20
2022-10-13T17:02:32.928Z,15.10
2022-10-13T17:05:00.516Z,15.00
2022-10-13T17:07:28.193Z,15.00
2022-10-13T17:09:55.824Z,14.90
2022-10-13T17:12:30.845Z,14.80
2022-10-13T17:15:00.388Z,14.80
2022-10-13T17:17:28.018Z,14.70
2022-10-13T17:19:55.606Z,14.60
2022-10-13T17:22:23.444Z,14.60
2022-10-13T17:24:51.069Z,14.50
2022-10-13T17:27:18.961Z,14.40
2022-10-13T17:29:47.178Z,14.40
2022-10-13T17:32:14.828Z,14.30
2022-10-13T17:34:42.458Z,14.30
2022-10-13T17:37:12.387Z,14.20
2022-10-13T17:39:40.073Z,14.20
2022-10-13T17:42:07.931Z,14.20
2022-10-13T17:44:35.557Z,14.10
2022-10-13T17:47:03.514Z,14.00
2022-10-13T17:49:31.109Z,14.00
2022-10-13T17:51:58.652Z,13.90
2022-10-13T17:54:29.111Z,13.90
2022-10-13T17:56:59.447Z,13.70
2022-10-13T17:59:27.087Z,13.70
2022-10-13T18:01:54.703Z,13.60
2022-10-13T18:04:23.623Z,13.60
2022-10-13T18:06:51.299Z,13.50
2022-10-13T18:09:21.434Z,13.50
2022-10-13T18:11:50.948Z,13.40
2022-10-13T18:14:23.996Z,13.40
2022-10-13T18:16:53.163Z,13.40
2022-10-13T18:19:21.582Z,13.30
2022-10-13T18:21:50.185Z,13.20
2022-10-13T18:24:17.842Z,13.20
2022-10-13T18:26:47.013Z,13.10
2022-10-13T18:29:14.615Z,13.10
2022-10-13T18:31:42.862Z,13.00
2022-10-13T18:34:16.999Z,13.00
2022-10-13T18:36:50.583Z,12.90
2022-10-13T18:39:23.455Z,12.80
2022-10-13T18:41:52.431Z,12.80
2022-10-13T18:44:21.856Z,12.80
2022-10-13T18:46:51.480Z,12.70
2022-10-13T18:49:23.078Z,12.70
2022-10-13T18:51:54.903Z,12.70
2022-10-13T18:54:22.625Z,12.60
2022-10-13T18:56:53.673Z,12.60
2022-10-13T18:59:21.587Z,12.60
2022-10-13T19:01:50.025Z,12.50
2022-10-13T19:04:17.774Z,12.50
2022-10-13T19:06:46.501Z,12.50
2022-10-13T19:09:17.578Z,12.40
2022-10-13T19:11:45.295Z,12.40
2022-10-13T19:14:16.681Z,12.40
2022-10-13T19:16:44.419Z,12.40
2022-10-13T19:19:12.723Z,12.40
2022-10-13T19:21:42.113Z,12.40
2022-10-13T19:24:10.646Z,12.40
2022-10-13T19:26:38.296Z,12.40
2022-10-13T19:29:09.152Z,12.40
2022-10-13T19:31:38.273Z,12.40
2022-10-13T19:34:08.576Z,12.40
2022-10-13T19:36:45.321Z,12.40
2022-10-13T19:39:22.288Z,12.50
2022-10-13T19:41:51.723Z,12.50
2022-10-13T19:44:20.468Z,12.50
2022-10-13T19:46:48.586Z,12.70
2022-10-13T19:49:18.917Z,12.40
2022-10-13T19:51:47.808Z,12.40
2022-10-13T19:54:20.393Z,12.40
2022-10-13T19:56:50.331Z,12.40
2022-10-13T19:59:26.835Z,12.30
2022-10-13T20:01:55.953Z,12.30
2022-10-13T20:04:24.769Z,12.20
2022-10-13T20:06:52.677Z,12.20
2022-10-13T20:09:21.731Z,12.10
2022-10-13T20:11:51.656Z,12.20
2022-10-13T20:14:31.961Z,12.10
2022-10-13T20:16:59.815Z,12.10
2022-10-13T20:19:27.764Z,12.10
2022-10-13T20:21:56.475Z,12.00
2022-10-13T20:24:24.530Z,12.00
2022-10-13T20:26:54.418Z,12.00
2022-10-13T20:29:23.846Z,12.00
2022-10-13T20:31:52.014Z,12.00
2022-10-13T20:34:20.163Z,12.00
2022-10-13T20:36:51.149Z,12.00
2022-10-13T20:39:19.806Z,12.00
2022-10-13T20:41:47.774Z,11.90
2022-10-13T20:44:18.638Z,11.90
2022-10-13T20:46:56.337Z,11.90
2022-10-13T20:49:25.697Z,11.90
2022-10-13T20:51:53.761Z,11.90
2022-10-13T20:54:22.878Z,11.90
2022-10-13T20:56:53.593Z,11.90
2022-10-13T20:59:21.398Z,11.90
2022-10-13T21:01:49.057Z,11.90
2022-10-13T21:04:17.181Z,11.90
2022-10-13T21:06:45.055Z,11.90
2022-10-13T21:09:13.089Z,11.90
2022-10-13T21:11:42.855Z,11.90
2022-10-13T21:14:11.629Z,11.90
2022-10-13T21:16:40.192Z,11.80
2022-10-13T21:19:11.118Z,11.80
2022-10-13T21:21:39.214Z,11.70
2022-10-13T21:24:13.699Z,11.70
2022-10-13T21:26:41.685Z,11.70
2022-10-13T21:29:15.034Z,11.70
2022-10-13T21:31:42.847Z,11.60
2022-10-13T21:34:11.136Z,11.60
2022-10-13T21:36:42.481Z,11.60
2022-10-13T21:39:12.286Z,11.60
2022-10-13T21:41:40.002Z,11.50
2022-10-13T21:44:07.632Z,11.50
2022-10-13T21:46:35.757Z,11.40
2022-10-13T21:49:07.020Z,11.40
2022-10-13T21:51:38.985Z,11.40
2022-10-13T21:54:12.247Z,11.30
2022-10-13T21:56:42.513Z,11.40
2022-10-13T21:59:12.567Z,11.30
2022-10-13T22:01:41.669Z,11.30
2022-10-13T22:04:14.172Z,11.40
2022-10-13T22:06:44.925Z,11.40
2022-10-13T22:09:18.821Z,11.40
2022-10-13T22:11:46.994Z,11.40
2022-10-13T22:14:14.774Z,11.40
2022-10-13T22:16:46.208Z,11.40
2022-10-13T22:19:16.114Z,11.40
2022-10-13T22:21:49.925Z,11.40
2022-10-13T22:24:20.364Z,11.50
2022-10-13T22:26:49.323Z,11.50
2022-10-13T22:29:21.440Z,11.50
2022-10-13T22:31:50.662Z,11.50
2022-10-13T22:34:20.669Z,11.60
2022-10-13T22:36:55.354Z,11.50
2022-10-13T22:39:23.566Z,11.60
2022-10-13T22:41:54.154Z,11.60
2022-10-13T22:44:24.074Z,11.60
2022-10-13T22:46:52.221Z,11.60
2022-10-13T22:49:20.128Z,11.50
2022-10-13T22:51:48.102Z,11.50
2022-10-13T22:54:15.957Z,11.50
2022-10-13T22:56:43.695Z,11.50
2022-10-13T22:59:12.767Z,11.60
2022-10-13T23:01:43.746Z,11.50
2022-10-13T23:04:11.572Z,11.50
2022-10-13T23:06:39.405Z,11.50
2022-10-13T23:09:10.564Z,11.50
2022-10-13T23:11:38.620Z,11.50
2022-10-13T23:14:07.225Z,11.40
2022-10-13T23:16:34.968Z,11.40
2022-10-13T23:19:04.804Z,11.40
2022-10-13T23:21:32.823Z,12.00
2022-10-13T23:24:03.515Z,11.40
2022-10-13T23:26:34.398Z,11.40
2022-10-13T23:29:02.625Z,11.40
2022-10-13T23:31:31.231Z,11.40
2022-10-13T23:34:08.213Z,11.40
2022-10-13T23:36:36.243Z,11.40
2022-10-13T23:39:07.366Z,11.40
2022-10-13T23:41:35.373Z,11.40
2022-10-13T23:44:03.341Z,11.40
2022-10-13T23:46:31.516Z,11.40
2022-10-13T23:48:59.150Z,11.40
2022-10-13T23:51:27.264Z,11.40
2022-10-13T23:53:55.855Z,11.40
2022-10-13T23:56:26.562Z,11.40
2022-10-13T23:58:54.269Z,11.40
